createdAt,value
2023-04-04T00:01:33.101Z,98872.31
2023-04-04T00:06:34.711Z,98868.22
2023-04-04T00:11:36.488Z,98866.63
2023-04-04T00:16:38.557Z,98863.97
2023-04-04T00:21:40.643Z,98860.78
2023-04-04T00:26:42.228Z,98851.38
2023-04-04T00:31:44.045Z,98840.13
2023-04-04T00:36:48.259Z,98843.13
2023-04-04T00:41:50.396Z,98838.91
2023-04-04T00:46:52.831Z,98844.50
2023-04-04T00:51:54.539Z,98842.13
2023-04-04T00:56:56.533Z,98838.84
2023-04-04T01:01:58.427Z,98835.34
2023-04-04T01:07:01.044Z,98841.53
2023-04-04T01:12:02.899Z,98840.72
2023-04-04T01:17:06.751Z,98832.47
2023-04-04T01:22:09.473Z,98833.16
2023-04-04T01:27:11.220Z,98826.03
2023-04-04T01:32:36.003Z,98813.75
2023-04-04T01:38:23.981Z,98804.91
2023-04-04T01:43:25.724Z,98804.81
2023-04-04T01:48:27.804Z,98804.81
2023-04-04T01:53:31.987Z,98803.31
2023-04-04T01:58:33.641Z,98804.97
2023-04-04T02:03:35.836Z,98806.59
2023-04-04T02:08:38.345Z,98794.88
2023-04-04T02:13:44.182Z,98795.84
2023-04-04T02:18:47.798Z,98797.41
2023-04-04T02:23:49.482Z,98797.31
2023-04-04T02:28:51.121Z,98793.44
2023-04-04T02:33:52.725Z,98796.00
2023-04-04T02:38:56.110Z,98787.09
2023-04-04T02:44:00.634Z,98784.13
2023-04-04T02:49:03.723Z,98786.91
2023-04-04T02:54:07.019Z,98777.69
2023-04-04T02:59:14.975Z,98775.63
2023-04-04T03:04:16.967Z,98774.31
2023-04-04T03:09:18.715Z,98780.84
2023-04-04T03:14:20.721Z,98767.31
2023-04-04T03:19:22.361Z,98762.38
2023-04-04T03:24:26.588Z,98754.28
2023-04-04T03:29:28.256Z,98763.03
2023-04-04T03:34:31.980Z,98756.66
2023-04-04T03:39:33.681Z,98754.38
2023-04-04T03:44:36.714Z,98751.75
2023-04-04T03:49:39.030Z,98745.06
2023-04-04T03:54:41.736Z,98746.13
2023-04-04T03:59:43.386Z,98749.28
2023-04-04T04:04:45.515Z,98744.72
2023-04-04T04:09:47.207Z,98747.84
2023-04-04T04:14:48.862Z,98741.28
2023-04-04T04:19:50.572Z,98743.66
2023-04-04T04:24:53.278Z,98745.28
2023-04-04T04:29:55.020Z,98742.03
2023-04-04T04:34:57.805Z,98739.38
2023-04-04T04:40:03.867Z,98741.53
2023-04-04T04:45:14.063Z,98745.00
2023-04-04T04:50:20.052Z,98740.06
2023-04-04T04:55:24.548Z,98739.38
2023-04-04T05:00:38.435Z,98744.34
2023-04-04T05:05:45.410Z,98756.31
2023-04-04T05:10:50.516Z,98762.31
2023-04-04T05:15:53.720Z,98769.47
2023-04-04T05:20:56.838Z,98772.75
2023-04-04T05:26:03.000Z,98771.44
2023-04-04T05:31:08.739Z,98775.06
2023-04-04T05:36:13.039Z,98784.28
2023-04-04T05:41:26.423Z,98779.75
2023-04-04T05:46:34.753Z,98787.78
2023-04-04T05:51:36.537Z,98790.19
2023-04-04T05:56:44.907Z,98790.25
2023-04-04T06:01:58.855Z,98786.78
2023-04-04T06:07:00.962Z,98788.06
2023-04-04T06:12:06.711Z,98792.03
2023-04-04T06:17:09.660Z,98788.03
2023-04-04T06:22:11.513Z,98789.91
2023-04-04T06:27:17.395Z,98783.47
2023-04-04T06:32:21.829Z,98781.91
2023-04-04T06:37:23.773Z,98790.66
2023-04-04T06:42:35.878Z,98791.81
2023-04-04T06:47:39.431Z,98788.66
2023-04-04T06:52:41.336Z,98781.13
2023-04-04T06:57:43.146Z,98787.34
2023-04-04T07:02:44.949Z,98785.16
2023-04-04T07:07:47.070Z,98784.44
2023-04-04T07:12:48.723Z,98780.50
2023-04-04T07:17:50.451Z,98788.16
2023-04-04T07:22:52.075Z,98778.69
2023-04-04T07:28:02.286Z,98786.28
2023-04-04T07:33:11.579Z,98784.13
2023-04-04T07:38:13.344Z,98795.16
2023-04-04T07:43:14.964Z,98790.19
2023-04-04T07:48:16.548Z,98785.75
2023-04-04T07:53:18.114Z,98774.03
2023-04-04T07:58:21.680Z,98780.63
2023-04-04T08:03:24.125Z,98779.03
2023-04-04T08:08:26.027Z,98778.13
2023-04-04T08:13:27.671Z,98785.00
2023-04-04T08:18:29.311Z,98776.31
2023-04-04T08:23:31.039Z,98770.69
2023-04-04T08:28:32.736Z,98776.91
2023-04-04T08:33:46.690Z,98774.81
2023-04-04T08:38:49.434Z,98776.44
2023-04-04T08:43:54.751Z,98781.38
2023-04-04T08:48:58.678Z,98778.06
2023-04-04T08:54:01.567Z,98774.00
2023-04-04T08:59:03.356Z,98781.19
2023-04-04T09:04:06.306Z,98777.28
2023-04-04T09:09:08.403Z,98774.69
2023-04-04T09:14:10.049Z,98773.56
2023-04-04T09:19:11.622Z,98768.97
2023-04-04T09:24:13.236Z,98772.34
2023-04-04T09:29:18.654Z,98764.19
2023-04-04T09:34:20.855Z,98767.13
2023-04-04T09:39:23.737Z,98770.03
2023-04-04T09:44:25.895Z,98769.56
2023-04-04T09:49:27.718Z,98771.84
2023-04-04T09:54:31.429Z,98770.56
2023-04-04T09:59:34.153Z,98772.06
2023-04-04T10:04:36.584Z,98777.34
2023-04-04T10:09:38.856Z,98775.34
2023-04-04T10:14:40.987Z,98772.72
2023-04-04T10:19:43.285Z,98776.03
2023-04-04T10:24:44.928Z,98771.88
2023-04-04T10:29:46.821Z,98772.53
2023-04-04T10:34:58.303Z,98767.50
2023-04-04T10:40:10.427Z,98766.03
2023-04-04T10:45:21.005Z,98771.81
2023-04-04T10:50:23.581Z,98766.16
2023-04-04T10:55:25.830Z,98763.41
2023-04-04T11:00:27.604Z,98761.41
2023-04-04T11:05:40.875Z,98748.00
2023-04-04T11:10:51.683Z,98751.06
2023-04-04T11:16:07.850Z,98756.69
2023-04-04T11:21:18.545Z,98743.63
2023-04-04T11:26:26.549Z,98745.94
2023-04-04T11:31:47.477Z,98743.59
2023-04-04T11:36:51.762Z,98740.94
2023-04-04T11:42:10.259Z,98736.56
2023-04-04T11:47:13.524Z,98736.09
2023-04-04T11:52:21.231Z,98729.03
2023-04-04T11:57:22.991Z,98727.41
2023-04-04T12:02:34.184Z,98723.56
2023-04-04T12:07:37.353Z,98709.91
2023-04-04T12:12:39.611Z,98721.47
2023-04-04T12:17:42.312Z,98720.44
2023-04-04T12:22:47.732Z,98707.88
2023-04-04T12:27:50.934Z,98703.00
2023-04-04T12:32:53.061Z,98704.72
2023-04-04T12:38:10.718Z,98698.38
2023-04-04T12:43:17.526Z,98693.75
2023-04-04T12:48:21.315Z,98685.84
2023-04-04T12:58:30.822Z,98689.13
2023-04-04T13:03:34.000Z,98678.13
2023-04-04T13:08:35.749Z,98674.84
2023-04-04T13:13:40.280Z,98673.25
2023-04-04T13:18:43.801Z,98663.44
2023-04-04T13:23:45.607Z,98664.38
2023-04-04T13:28:47.801Z,98655.28
2023-04-04T13:33:49.655Z,98656.22
2023-04-04T13:38:51.559Z,98651.06
2023-04-04T13:43:53.420Z,98648.28
2023-04-04T13:48:55.343Z,98644.56
2023-04-04T13:53:57.239Z,98640.47
2023-04-04T13:58:59.131Z,98629.81
2023-04-04T14:04:07.309Z,98626.09
2023-04-04T14:09:15.055Z,98615.75
2023-04-04T14:14:17.060Z,98618.75
2023-04-04T14:19:18.952Z,98613.94
2023-04-04T14:24:20.844Z,98613.78
2023-04-04T14:29:22.783Z,98625.44
2023-04-04T14:34:26.654Z,98621.94
2023-04-04T14:39:28.508Z,98616.91
2023-04-04T14:44:31.621Z,98618.13
2023-04-04T14:49:34.128Z,98608.66
2023-04-04T14:54:35.977Z,98605.38
2023-04-04T14:59:37.970Z,98606.09
2023-04-04T15:04:39.820Z,98599.94
2023-04-04T15:09:41.674Z,98598.53
2023-04-04T15:14:43.460Z,98602.66
2023-04-04T15:19:45.529Z,98596.41
2023-04-04T15:24:47.410Z,98597.22
2023-04-04T15:29:49.219Z,98593.13
2023-04-04T15:34:51.038Z,98589.66
2023-04-04T15:39:54.205Z,98585.25
2023-04-04T15:44:56.672Z,98585.84
2023-04-04T15:50:00.866Z,98582.28
2023-04-04T15:55:03.741Z,98580.03
2023-04-04T16:00:06.570Z,98570.03
2023-04-04T16:05:09.828Z,98575.69
2023-04-04T16:10:11.802Z,98579.41
2023-04-04T16:15:13.660Z,98573.91
2023-04-04T16:20:15.689Z,98567.22
2023-04-04T16:25:18.240Z,98576.31
2023-04-04T16:30:20.245Z,98571.44
2023-04-04T16:35:22.074Z,98563.22
2023-04-04T16:40:23.926Z,98558.84
2023-04-04T16:45:26.164Z,98559.06
2023-04-04T16:50:28.006Z,98557.47
2023-04-04T16:55:29.805Z,98552.84
2023-04-04T17:00:33.156Z,98554.19
2023-04-04T17:05:34.935Z,98552.22
2023-04-04T17:10:40.340Z,98557.75
2023-04-04T17:15:42.480Z,98549.00
2023-04-04T17:20:44.349Z,98547.63
2023-04-04T17:25:47.459Z,98551.75
2023-04-04T17:30:49.480Z,98556.56
2023-04-04T17:35:51.550Z,98541.91
2023-04-04T17:40:53.661Z,98543.50
2023-04-04T17:45:56.243Z,98555.06
2023-04-04T17:50:58.487Z,98547.34
2023-04-04T17:56:00.367Z,98548.16
2023-04-04T18:01:03.400Z,98547.41
2023-04-04T18:06:05.955Z,98550.88
2023-04-04T18:11:08.272Z,98553.66
2023-04-04T18:16:10.315Z,98553.75
2023-04-04T18:21:12.395Z,98547.88
2023-04-04T18:26:14.268Z,98544.88
2023-04-04T18:31:16.489Z,98541.41
2023-04-04T18:36:18.621Z,98545.88
2023-04-04T18:41:21.875Z,98545.34
2023-04-04T18:46:23.693Z,98539.50
2023-04-04T18:51:26.388Z,98540.94
2023-04-04T18:56:28.191Z,98546.84
2023-04-04T19:01:31.385Z,98542.06
2023-04-04T19:06:33.618Z,98550.22
2023-04-04T19:11:37.594Z,98552.88
2023-04-04T19:16:40.132Z,98545.41
2023-04-04T19:21:42.266Z,98554.94
2023-04-04T19:26:44.070Z,98548.03
2023-04-04T19:31:45.760Z,98555.72
2023-04-04T19:36:47.408Z,98554.47
2023-04-04T19:41:49.096Z,98543.13
2023-04-04T19:46:50.972Z,98546.25
2023-04-04T19:51:55.960Z,98545.81
2023-04-04T19:57:01.090Z,98546.47
2023-04-04T20:02:02.762Z,98549.63
2023-04-04T20:07:04.462Z,98551.34
2023-04-04T20:12:07.301Z,98544.09
2023-04-04T20:17:09.714Z,98550.19
2023-04-04T20:22:11.604Z,98546.41
2023-04-04T20:27:23.681Z,98544.47
2023-04-04T20:32:25.380Z,98542.50
2023-04-04T20:37:28.654Z,98543.97
2023-04-04T20:42:34.023Z,98546.03
2023-04-04T20:47:44.920Z,98543.22
2023-04-04T20:53:01.592Z,98538.56
2023-04-04T20:58:10.664Z,98543.97
2023-04-04T21:03:30.915Z,98552.19
2023-04-04T21:08:42.637Z,98556.13
2023-04-04T21:13:44.608Z,98557.78
2023-04-04T21:18:46.336Z,98546.66
2023-04-04T21:23:53.500Z,98555.56
2023-04-04T21:28:56.795Z,98551.91
2023-04-04T21:34:01.650Z,98546.38
2023-04-04T21:39:29.636Z,98543.88
2023-04-04T21:44:31.941Z,98540.09
2023-04-04T21:49:35.444Z,98533.75
2023-04-04T21:54:37.060Z,98526.44
2023-04-04T21:59:38.714Z,98527.41
2023-04-04T22:04:40.374Z,98529.69
2023-04-04T22:09:42.989Z,98516.84
2023-04-04T22:14:45.762Z,98521.31
2023-04-04T22:19:58.770Z,98515.34
2023-04-04T22:25:05.740Z,98518.47
2023-04-04T22:30:08.213Z,98525.63
2023-04-04T22:35:12.311Z,98523.66
2023-04-04T22:40:14.304Z,98517.13
2023-04-04T22:45:16.877Z,98519.50
2023-04-04T22:50:22.777Z,98512.13
2023-04-04T22:55:26.412Z,98516.13
2023-04-04T23:00:28.140Z,98514.06
2023-04-04T23:05:29.987Z,98509.66
2023-04-04T23:10:31.677Z,98509.22
2023-04-04T23:15:35.722Z,98509.53
2023-04-04T23:20:37.513Z,98504.34
2023-04-04T23:25:39.129Z,98504.44
2023-04-04T23:30:40.880Z,98501.00
2023-04-04T23:35:43.049Z,98494.69
2023-04-04T23:40:44.707Z,98492.88
2023-04-04T23:45:46.344Z,98488.31
2023-04-04T23:50:49.994Z,98492.09
2023-04-04T23:55:51.641Z,98481.59
